createdAt,value
2018-05-19T00:00:44.732Z,99.99
2018-05-19T00:01:44.969Z,99.99
2018-05-19T00:02:45.209Z,99.99
2018-05-19T00:03:45.445Z,99.99
2018-05-19T00:04:45.683Z,99.99
2018-05-19T00:05:45.922Z,99.99
2018-05-19T00:06:46.158Z,99.99
2018-05-19T00:07:46.396Z,99.99
2018-05-19T00:08:46.634Z,99.99
2018-05-19T00:09:46.872Z,99.99
2018-05-19T00:10:47.108Z,99.99
2018-05-19T00:11:47.345Z,99.99
2018-05-19T00:12:47.598Z,99.99
2018-05-19T00:13:47.821Z,99.99
2018-05-19T00:14:48.058Z,99.99
2018-05-19T00:15:48.296Z,99.99
2018-05-19T00:16:48.534Z,99.99
2018-05-19T00:17:48.771Z,99.99
2018-05-19T00:18:49.007Z,99.99
2018-05-19T00:19:49.251Z,99.99
2018-05-19T00:20:49.481Z,99.99
2018-05-19T00:21:49.721Z,99.99
2018-05-19T00:22:49.956Z,99.99
2018-05-19T00:23:50.192Z,99.99
2018-05-19T00:24:50.430Z,99.99
2018-05-19T00:25:50.666Z,99.99
2018-05-19T00:26:50.903Z,99.99
2018-05-19T00:27:51.141Z,99.99
2018-05-19T00:28:51.379Z,99.99
2018-05-19T00:29:51.615Z,99.99
2018-05-19T00:30:51.851Z,99.99
2018-05-19T00:31:52.091Z,99.99
2018-05-19T00:32:52.327Z,99.99
2018-05-19T00:33:52.563Z,99.99
2018-05-19T00:34:52.800Z,99.99
2018-05-19T00:35:53.037Z,99.99
2018-05-19T00:36:53.275Z,99.99
2018-05-19T00:37:53.512Z,99.99
2018-05-19T00:38:53.750Z,99.99
2018-05-19T00:39:53.990Z,99.99
2018-05-19T00:40:54.223Z,99.99
2018-05-19T00:41:54.461Z,99.99
2018-05-19T00:42:54.698Z,99.99
2018-05-19T00:43:54.935Z,99.99
2018-05-19T00:44:55.172Z,99.99
2018-05-19T00:45:55.409Z,99.99
2018-05-19T00:46:55.647Z,99.99
2018-05-19T00:47:55.888Z,99.99
2018-05-19T00:48:56.122Z,99.99
2018-05-19T00:49:56.358Z,99.99
2018-05-19T00:50:56.594Z,99.99
2018-05-19T00:51:56.833Z,99.99
2018-05-19T00:52:57.070Z,99.99
2018-05-19T00:53:57.306Z,99.99
2018-05-19T00:54:57.543Z,99.99
2018-05-19T00:55:57.785Z,99.99
2018-05-19T00:56:58.017Z,99.99
2018-05-19T00:57:58.256Z,99.99
2018-05-19T00:58:58.493Z,99.99
2018-05-19T00:59:58.729Z,99.99
2018-05-19T01:00:58.969Z,99.99
2018-05-19T01:01:59.206Z,99.99
2018-05-19T01:02:59.442Z,99.99
2018-05-19T01:03:59.680Z,99.99
2018-05-19T01:04:59.919Z,99.99
2018-05-19T01:06:00.156Z,99.99
2018-05-19T01:07:00.394Z,99.99
2018-05-19T01:08:00.630Z,99.99
2018-05-19T01:09:00.867Z,99.99
2018-05-19T01:10:01.107Z,99.99
2018-05-19T01:11:01.347Z,99.99
2018-05-19T01:12:01.579Z,99.99
2018-05-19T01:13:01.817Z,99.99
2018-05-19T01:14:02.054Z,99.99
2018-05-19T01:15:02.293Z,99.99
2018-05-19T01:16:02.531Z,99.99
2018-05-19T01:17:02.771Z,99.99
2018-05-19T01:18:03.007Z,99.99
2018-05-19T01:19:03.242Z,99.99
2018-05-19T01:20:03.479Z,99.99
2018-05-19T01:21:03.716Z,99.99
2018-05-19T01:22:03.952Z,99.99
2018-05-19T01:23:04.191Z,99.99
2018-05-19T01:24:04.488Z,99.99
2018-05-19T01:25:04.665Z,99.99
2018-05-19T01:26:04.902Z,99.99
2018-05-19T01:27:05.140Z,99.99
2018-05-19T01:28:05.377Z,99.99
2018-05-19T01:29:05.615Z,99.99
2018-05-19T01:30:05.852Z,99.99
2018-05-19T01:31:06.090Z,99.99
2018-05-19T01:32:06.329Z,99.99
2018-05-19T01:33:06.567Z,99.99
2018-05-19T01:34:06.803Z,99.99
2018-05-19T01:35:07.042Z,99.99
2018-05-19T01:36:07.280Z,99.99
2018-05-19T01:37:07.519Z,99.99
2018-05-19T01:38:07.755Z,99.99
2018-05-19T01:39:07.992Z,99.99
2018-05-19T01:40:08.234Z,99.99
2018-05-19T01:41:08.467Z,99.99
2018-05-19T01:42:08.703Z,99.99
2018-05-19T01:43:08.942Z,99.99
2018-05-19T01:44:09.179Z,99.99
2018-05-19T01:45:09.416Z,99.99
2018-05-19T01:46:09.653Z,99.99
2018-05-19T01:47:09.892Z,99.99
2018-05-19T01:48:10.127Z,99.99
2018-05-19T01:49:10.364Z,99.99
2018-05-19T01:50:10.607Z,99.99
2018-05-19T01:51:10.846Z,99.99
2018-05-19T01:52:11.081Z,99.99
2018-05-19T01:53:11.321Z,99.99
2018-05-19T01:54:11.556Z,99.99
2018-05-19T01:55:11.793Z,99.99
2018-05-19T01:56:12.031Z,99.99
2018-05-19T01:57:12.269Z,99.99
2018-05-19T01:58:12.504Z,99.99
2018-05-19T01:59:12.741Z,99.99
2018-05-19T02:00:12.980Z,99.99
2018-05-19T02:01:13.216Z,99.99
2018-05-19T02:02:13.454Z,99.99
2018-05-19T02:03:13.691Z,99.99
2018-05-19T02:04:13.928Z,99.99
2018-05-19T02:05:14.166Z,99.99
2018-05-19T02:06:14.405Z,99.99
2018-05-19T02:07:14.640Z,99.99
2018-05-19T02:08:14.878Z,99.99
2018-05-19T02:09:15.114Z,99.99
2018-05-19T02:10:15.353Z,99.99
2018-05-19T02:11:15.591Z,99.99
2018-05-19T02:12:15.827Z,99.99
2018-05-19T02:13:16.064Z,99.99
2018-05-19T02:14:16.303Z,99.99
2018-05-19T02:15:16.542Z,99.99
2018-05-19T02:16:16.778Z,99.99
2018-05-19T02:17:17.015Z,99.99
2018-05-19T02:18:17.250Z,99.99
2018-05-19T02:19:17.488Z,99.99
2018-05-19T02:20:17.726Z,99.99
2018-05-19T02:21:17.963Z,99.99
2018-05-19T02:22:18.200Z,99.99
2018-05-19T02:23:18.438Z,99.99
2018-05-19T02:24:18.675Z,99.99
2018-05-19T02:25:18.913Z,99.99
2018-05-19T02:26:19.152Z,99.99
2018-05-19T02:27:19.387Z,99.99
2018-05-19T02:28:19.624Z,99.99
2018-05-19T02:29:19.862Z,99.99
2018-05-19T02:30:20.098Z,99.99
2018-05-19T02:31:20.336Z,99.99
2018-05-19T02:32:20.572Z,99.99
2018-05-19T02:33:20.809Z,99.99
2018-05-19T02:34:21.047Z,99.99
2018-05-19T02:35:21.285Z,99.99
2018-05-19T02:36:21.519Z,99.99
2018-05-19T02:37:21.758Z,99.99
2018-05-19T02:38:21.993Z,99.99
2018-05-19T02:39:22.227Z,99.99
2018-05-19T02:40:22.464Z,99.99
2018-05-19T02:41:22.704Z,99.99
2018-05-19T02:42:22.939Z,99.99
2018-05-19T02:43:23.175Z,99.99
2018-05-19T02:44:23.414Z,99.99
2018-05-19T02:45:23.653Z,99.99
2018-05-19T02:46:23.888Z,99.99
2018-05-19T02:47:24.128Z,99.99
2018-05-19T02:48:24.362Z,99.99
2018-05-19T02:49:24.599Z,99.99
2018-05-19T02:50:24.836Z,99.99
2018-05-19T02:51:25.072Z,99.99
2018-05-19T02:52:25.310Z,99.99
2018-05-19T02:53:25.548Z,99.99
2018-05-19T02:54:25.787Z,99.99
2018-05-19T02:55:26.023Z,99.99
2018-05-19T02:56:26.259Z,99.99
2018-05-19T02:57:26.497Z,99.99
2018-05-19T02:58:26.741Z,99.99
2018-05-19T02:59:26.972Z,99.99
2018-05-19T03:00:27.209Z,99.99
2018-05-19T03:01:27.447Z,99.99
2018-05-19T03:02:27.682Z,99.99
2018-05-19T03:03:27.925Z,99.99
2018-05-19T03:04:28.160Z,99.99
2018-05-19T03:05:28.393Z,99.99
2018-05-19T03:06:28.636Z,99.99
2018-05-19T03:07:28.868Z,99.99
2018-05-19T03:08:29.106Z,99.99
2018-05-19T03:09:29.340Z,99.99
2018-05-19T03:10:29.580Z,99.99
2018-05-19T03:11:29.818Z,99.99
2018-05-19T03:12:30.054Z,99.99
2018-05-19T03:13:30.299Z,99.99
2018-05-19T03:14:30.529Z,99.99
2018-05-19T03:15:30.765Z,99.99
2018-05-19T03:16:31.005Z,99.99
2018-05-19T03:17:31.239Z,99.99
2018-05-19T03:18:31.475Z,99.99
2018-05-19T03:19:31.713Z,99.99
2018-05-19T03:20:31.949Z,99.99
2018-05-19T03:21:32.186Z,99.99
2018-05-19T03:22:32.428Z,99.99
2018-05-19T03:23:32.665Z,99.99
2018-05-19T03:24:32.898Z,99.99
2018-05-19T03:25:33.139Z,99.99
2018-05-19T03:26:33.373Z,99.99
2018-05-19T03:27:33.612Z,99.99
2018-05-19T03:28:33.851Z,99.99
2018-05-19T03:29:34.087Z,99.99
2018-05-19T03:30:34.329Z,99.99
2018-05-19T03:31:34.562Z,99.99
2018-05-19T03:32:34.800Z,99.99
2018-05-19T03:33:35.040Z,99.99
2018-05-19T03:34:35.276Z,99.99
2018-05-19T03:35:35.515Z,99.99
2018-05-19T03:36:35.752Z,99.99
2018-05-19T03:37:35.989Z,99.99
2018-05-19T03:38:36.225Z,99.99
2018-05-19T03:39:36.464Z,99.99
2018-05-19T03:40:36.701Z,99.99
2018-05-19T03:41:36.941Z,99.99
2018-05-19T03:42:37.179Z,99.99
2018-05-19T03:43:37.418Z,99.99
2018-05-19T03:44:37.655Z,99.99
2018-05-19T03:45:37.896Z,99.99
2018-05-19T03:46:38.135Z,99.99
2018-05-19T03:47:38.375Z,99.99
2018-05-19T03:48:38.610Z,99.99
2018-05-19T03:49:38.849Z,99.99
2018-05-19T03:50:39.085Z,99.99
2018-05-19T03:51:39.323Z,99.99
2018-05-19T03:52:39.560Z,99.99
2018-05-19T03:53:39.798Z,99.99
2018-05-19T03:54:40.037Z,99.99
2018-05-19T03:55:40.273Z,99.99
2018-05-19T03:56:40.511Z,99.99
2018-05-19T03:57:40.754Z,99.99
2018-05-19T03:58:40.988Z,99.99
2018-05-19T03:59:41.226Z,99.99
2018-05-19T04:00:41.464Z,99.99
2018-05-19T04:01:41.702Z,99.99
2018-05-19T04:02:41.939Z,99.99
2018-05-19T04:03:42.177Z,99.99
2018-05-19T04:04:42.416Z,99.99
2018-05-19T04:05:42.657Z,99.99
2018-05-19T04:06:42.892Z,99.99
2018-05-19T04:07:43.131Z,99.99
2018-05-19T04:08:43.369Z,99.99
2018-05-19T04:09:43.607Z,99.99
2018-05-19T04:10:43.844Z,99.99
2018-05-19T04:11:44.084Z,99.99
2018-05-19T04:12:44.319Z,99.99
2018-05-19T04:13:44.557Z,99.99
2018-05-19T04:14:44.800Z,99.99
2018-05-19T04:15:45.032Z,99.99
2018-05-19T04:16:45.271Z,99.99
2018-05-19T04:17:45.509Z,99.99
2018-05-19T04:18:45.749Z,99.99
2018-05-19T04:19:45.989Z,99.99
2018-05-19T04:20:46.230Z,99.99
2018-05-19T04:21:46.464Z,99.99
2018-05-19T04:22:46.702Z,99.99
2018-05-19T04:23:46.941Z,99.99
2018-05-19T04:24:47.179Z,99.99
2018-05-19T04:25:47.417Z,99.99
2018-05-19T04:26:47.656Z,99.99
2018-05-19T04:27:47.894Z,99.99
2018-05-19T04:28:48.132Z,99.99
2018-05-19T04:29:48.370Z,99.99
2018-05-19T04:30:48.609Z,99.99
2018-05-19T04:31:48.849Z,99.99
2018-05-19T04:32:49.091Z,99.99
2018-05-19T04:33:49.325Z,99.99
2018-05-19T04:34:49.562Z,99.99
2018-05-19T04:35:49.801Z,99.99
2018-05-19T04:36:50.041Z,99.99
2018-05-19T04:37:50.277Z,99.99
2018-05-19T04:38:50.515Z,99.99
2018-05-19T04:39:50.754Z,99.99
2018-05-19T04:40:50.992Z,99.99
2018-05-19T04:41:51.229Z,99.99
2018-05-19T04:42:51.467Z,99.99
2018-05-19T04:43:51.707Z,99.99
2018-05-19T04:44:51.945Z,99.99
2018-05-19T04:45:52.182Z,99.99
2018-05-19T04:46:52.424Z,99.99
2018-05-19T04:47:52.658Z,99.99
2018-05-19T04:48:52.900Z,99.99
2018-05-19T04:49:53.138Z,99.99
2018-05-19T04:50:53.377Z,99.99
2018-05-19T04:51:53.613Z,99.99
2018-05-19T04:52:53.852Z,99.99
2018-05-19T04:53:54.091Z,99.99
2018-05-19T04:54:54.329Z,99.99
2018-05-19T04:55:54.568Z,99.99
2018-05-19T04:56:54.886Z,99.99
2018-05-19T04:57:55.047Z,99.99
2018-05-19T04:58:55.287Z,99.99
2018-05-19T04:59:55.524Z,99.99
2018-05-19T05:00:55.774Z,99.99
2018-05-19T05:01:56.002Z,99.99
2018-05-19T05:02:56.242Z,99.99
2018-05-19T05:03:56.534Z,99.99
2018-05-19T05:04:56.720Z,99.99
2018-05-19T05:05:56.959Z,99.99
2018-05-19T05:06:57.201Z,99.99
2018-05-19T05:07:57.438Z,99.99
2018-05-19T05:08:57.676Z,99.99
2018-05-19T05:09:57.913Z,99.99
2018-05-19T05:10:58.153Z,99.99
2018-05-19T05:11:58.392Z,99.99
2018-05-19T05:12:58.630Z,99.99
2018-05-19T05:13:58.886Z,99.99
2018-05-19T05:14:59.107Z,99.99
2018-05-19T05:15:59.345Z,99.99
2018-05-19T05:16:59.585Z,99.99
2018-05-19T05:17:59.825Z,99.99
2018-05-19T05:19:00.064Z,99.99
2018-05-19T05:20:00.303Z,99.99
2018-05-19T05:21:00.542Z,99.99
2018-05-19T05:22:00.782Z,99.99
2018-05-19T05:23:01.024Z,99.99
2018-05-19T05:24:01.262Z,99.99
2018-05-19T05:25:01.503Z,99.99
2018-05-19T05:26:01.741Z,99.99
2018-05-19T05:27:02.058Z,99.99
2018-05-19T05:28:02.220Z,99.99
2018-05-19T05:29:02.461Z,99.99
2018-05-19T05:30:02.714Z,99.99
2018-05-19T05:31:03.031Z,99.99
2018-05-19T05:32:03.444Z,99.99
2018-05-19T05:33:03.688Z,99.99
2018-05-19T05:34:03.971Z,99.99
2018-05-19T05:35:04.240Z,99.99
2018-05-19T05:36:04.555Z,99.99
2018-05-19T05:37:04.812Z,99.99
2018-05-19T05:38:05.196Z,99.99
2018-05-19T05:39:05.420Z,99.99
2018-05-19T05:40:05.651Z,99.99
2018-05-19T05:41:05.891Z,99.99
2018-05-19T05:42:06.133Z,99.99
2018-05-19T05:43:06.418Z,99.99
2018-05-19T05:44:06.610Z,99.99
2018-05-19T05:45:06.868Z,99.99
2018-05-19T05:46:07.099Z,99.99
2018-05-19T05:47:07.347Z,99.99
2018-05-19T05:48:07.583Z,99.89
2018-05-19T05:49:07.824Z,99.41
2018-05-19T05:50:08.085Z,99.41
2018-05-19T05:51:08.307Z,99.41
2018-05-19T05:52:08.551Z,98.18
2018-05-19T05:53:08.783Z,98.69
2018-05-19T05:54:09.030Z,98.88
2018-05-19T05:55:09.271Z,98.94
2018-05-19T05:56:09.512Z,99.41
2018-05-19T05:57:09.754Z,98.84
2018-05-19T05:58:10.002Z,98.65
2018-05-19T05:59:10.242Z,98.46
2018-05-19T06:00:10.481Z,98.18
2018-05-19T06:01:10.723Z,98.60
2018-05-19T06:02:10.963Z,98.70
2018-05-19T06:03:11.207Z,98.13
2018-05-19T06:04:11.446Z,97.56
2018-05-19T06:05:11.686Z,97.27
2018-05-19T06:06:11.935Z,97.75
2018-05-19T06:07:12.169Z,97.27
2018-05-19T06:08:12.411Z,97.56
2018-05-19T06:09:12.653Z,97.75
2018-05-19T06:10:12.893Z,97.08
2018-05-19T06:11:13.135Z,97.56
2018-05-19T06:12:13.450Z,97.56
2018-05-19T06:13:13.617Z,97.84
2018-05-19T06:14:13.857Z,97.27
2018-05-19T06:15:14.098Z,97.61
2018-05-19T06:16:14.339Z,96.65
2018-05-19T06:17:14.579Z,96.56
2018-05-19T06:18:14.823Z,96.27
2018-05-19T06:19:15.064Z,96.17
2018-05-19T06:20:15.305Z,95.51
2018-05-19T06:21:15.548Z,95.32
2018-05-19T06:22:15.789Z,95.51
2018-05-19T06:23:16.032Z,95.61
2018-05-19T06:24:16.274Z,95.46
2018-05-19T06:25:16.518Z,94.70
2018-05-19T06:26:16.755Z,94.89
2018-05-19T06:27:16.995Z,94.89
2018-05-19T06:28:17.239Z,94.70
2018-05-19T06:29:17.481Z,94.98
2018-05-19T06:30:17.724Z,94.51
2018-05-19T06:31:17.969Z,93.60
2018-05-19T06:32:18.208Z,93.98
2018-05-19T06:33:18.453Z,93.79
2018-05-19T06:34:18.696Z,93.98
2018-05-19T06:35:18.935Z,94.07
2018-05-19T06:36:19.212Z,93.22
2018-05-19T06:37:19.451Z,93.02
2018-05-19T06:38:19.691Z,93.41
2018-05-19T06:39:19.936Z,93.51
2018-05-19T06:40:20.179Z,92.93
2018-05-19T06:41:20.422Z,93.60
2018-05-19T06:42:20.666Z,93.88
2018-05-19T06:43:20.914Z,93.22
2018-05-19T06:44:21.152Z,92.83
2018-05-19T06:45:21.395Z,92.31
2018-05-19T06:46:21.642Z,92.88
2018-05-19T06:47:21.881Z,93.17
2018-05-19T06:48:22.186Z,93.17
2018-05-19T06:49:22.368Z,93.17
2018-05-19T06:50:22.613Z,92.88
2018-05-19T06:51:22.848Z,92.50
2018-05-19T06:52:23.104Z,92.45
2018-05-19T06:53:23.348Z,92.41
2018-05-19T06:54:23.589Z,91.88
2018-05-19T06:55:23.833Z,91.11
2018-05-19T06:56:24.075Z,91.40
2018-05-19T06:57:24.316Z,91.40
2018-05-19T06:58:24.560Z,91.97
2018-05-19T06:59:24.804Z,91.64
2018-05-19T07:00:25.048Z,90.68
2018-05-19T07:01:25.291Z,89.82
2018-05-19T07:02:25.534Z,89.25
2018-05-19T07:03:25.781Z,88.96
2018-05-19T07:04:26.025Z,89.87
2018-05-19T07:05:26.269Z,88.91
2018-05-19T07:06:26.514Z,88.72
2018-05-19T07:07:26.755Z,88.62
2018-05-19T07:08:26.999Z,88.38
2018-05-19T07:09:27.241Z,87.43
2018-05-19T07:10:27.485Z,87.37
2018-05-19T07:11:27.734Z,85.46
2018-05-19T07:12:27.975Z,84.79
2018-05-19T07:13:28.221Z,84.41
2018-05-19T07:14:28.464Z,85.41
2018-05-19T07:15:28.709Z,84.16
2018-05-19T07:16:28.957Z,83.39
2018-05-19T07:17:29.202Z,82.09
2018-05-19T07:18:29.447Z,82.00
2018-05-19T07:19:29.692Z,80.37
2018-05-19T07:20:29.937Z,79.70
2018-05-19T07:21:30.183Z,79.22
2018-05-19T07:22:30.428Z,79.51
2018-05-19T07:23:30.671Z,79.70
2018-05-19T07:24:30.919Z,79.13
2018-05-19T07:25:31.164Z,78.03
2018-05-19T07:26:31.443Z,77.59
2018-05-19T07:27:31.659Z,77.88
2018-05-19T07:28:31.904Z,77.59
2018-05-19T07:29:32.145Z,77.50
2018-05-19T07:30:32.392Z,76.67
2018-05-19T07:31:32.634Z,76.44
2018-05-19T07:32:32.879Z,77.21
2018-05-19T07:33:33.128Z,73.80
2018-05-19T07:34:33.371Z,73.41
2018-05-19T07:35:33.634Z,75.46
2018-05-19T07:36:33.860Z,74.76
2018-05-19T07:37:34.106Z,75.52
2018-05-19T07:38:34.351Z,73.41
2018-05-19T07:39:34.598Z,75.10
2018-05-19T07:40:34.854Z,74.52
2018-05-19T07:41:35.100Z,73.57
2018-05-19T07:42:35.352Z,71.59
2018-05-19T07:43:35.588Z,71.21
2018-05-19T07:44:35.912Z,70.86
2018-05-19T07:45:36.076Z,70.29
2018-05-19T07:46:36.323Z,69.33
2018-05-19T07:47:36.570Z,70.86
2018-05-19T07:48:36.816Z,69.74
2018-05-19T07:49:37.062Z,67.92
2018-05-19T07:50:37.309Z,68.12
2018-05-19T07:51:37.556Z,67.25
2018-05-19T07:52:37.801Z,67.16
2018-05-19T07:53:38.046Z,67.44
2018-05-19T07:54:38.292Z,68.18
2018-05-19T07:55:38.542Z,66.29
2018-05-19T07:56:38.786Z,66.13
2018-05-19T07:57:39.033Z,67.16
2018-05-19T07:58:39.277Z,68.69
2018-05-19T07:59:39.522Z,69.07
2018-05-19T08:00:39.771Z,68.24
2018-05-19T08:01:40.020Z,65.69
2018-05-19T08:02:40.292Z,63.79
2018-05-19T08:03:40.539Z,60.94
2018-05-19T08:04:40.787Z,62.61
2018-05-19T08:05:41.036Z,62.52
2018-05-19T08:06:41.283Z,63.38
2018-05-19T08:07:41.532Z,64.25
2018-05-19T08:08:41.782Z,65.17
2018-05-19T08:09:42.032Z,63.35
2018-05-19T08:10:42.282Z,62.74
2018-05-19T08:11:42.533Z,62.26
2018-05-19T08:12:42.783Z,60.43
2018-05-19T08:13:43.032Z,61.08
2018-05-19T08:14:43.286Z,61.59
2018-05-19T08:15:43.535Z,62.58
2018-05-19T08:16:43.787Z,60.22
2018-05-19T08:17:44.037Z,62.39
2018-05-19T08:18:44.287Z,63.16
2018-05-19T08:19:44.538Z,63.09
2018-05-19T08:20:44.788Z,63.25
2018-05-19T08:21:45.044Z,62.19
2018-05-19T08:22:45.297Z,62.58
2018-05-19T08:23:45.544Z,61.46
2018-05-19T08:24:45.798Z,60.66
2018-05-19T08:25:46.047Z,61.78
2018-05-19T08:26:46.298Z,59.76
2018-05-19T08:27:46.549Z,59.28
2018-05-19T08:28:46.800Z,58.94
2018-05-19T08:29:47.055Z,59.77
2018-05-19T08:30:47.304Z,62.62
2018-05-19T08:31:47.555Z,62.90
2018-05-19T08:32:47.809Z,63.54
2018-05-19T08:33:48.059Z,65.36
2018-05-19T08:34:48.312Z,62.96
2018-05-19T08:35:48.562Z,62.96
2018-05-19T08:36:48.813Z,61.46
2018-05-19T08:37:49.064Z,63.19
2018-05-19T08:38:49.316Z,63.76
2018-05-19T08:39:49.565Z,64.89
2018-05-19T08:40:49.824Z,65.36
2018-05-19T08:41:50.074Z,65.46
2018-05-19T08:42:50.328Z,65.46
2018-05-19T08:43:50.572Z,66.13
2018-05-19T08:44:50.820Z,65.08
2018-05-19T08:45:51.067Z,65.39
2018-05-19T08:46:51.312Z,64.43
2018-05-19T08:47:51.560Z,63.70
2018-05-19T08:48:51.809Z,63.00
2018-05-19T08:49:52.060Z,62.49
2018-05-19T08:50:52.308Z,63.92
2018-05-19T08:51:52.556Z,64.22
2018-05-19T08:52:52.807Z,62.96
2018-05-19T08:53:53.055Z,64.85
2018-05-19T08:54:53.304Z,63.89
2018-05-19T08:55:53.558Z,63.83
2018-05-19T08:56:53.801Z,65.46
2018-05-19T08:57:54.181Z,65.08
2018-05-19T08:58:54.430Z,64.76
2018-05-19T08:59:54.680Z,64.95
2018-05-19T09:00:54.930Z,61.27
2018-05-19T09:01:55.179Z,62.36
2018-05-19T09:02:55.429Z,61.98
2018-05-19T09:03:55.679Z,61.78
2018-05-19T09:04:55.928Z,62.52
2018-05-19T09:05:56.177Z,63.96
2018-05-19T09:06:56.426Z,63.96
2018-05-19T09:07:56.679Z,62.93
2018-05-19T09:08:56.928Z,63.60
2018-05-19T09:09:57.175Z,62.93
2018-05-19T09:10:57.425Z,60.95
2018-05-19T09:11:57.676Z,57.81
2018-05-19T09:12:57.925Z,58.00
2018-05-19T09:13:58.175Z,57.42
2018-05-19T09:14:58.424Z,56.26
2018-05-19T09:15:58.675Z,55.20
2018-05-19T09:16:58.923Z,54.82
2018-05-19T09:17:59.173Z,55.59
2018-05-19T09:18:59.424Z,56.45
2018-05-19T09:19:59.674Z,55.49
2018-05-19T09:20:59.928Z,55.37
2018-05-19T09:22:00.178Z,56.33
2018-05-19T09:23:00.427Z,55.94
2018-05-19T09:24:00.676Z,56.76
2018-05-19T09:25:00.926Z,58.48
2018-05-19T09:26:01.178Z,59.34
2018-05-19T09:27:01.428Z,60.38
2018-05-19T09:28:01.676Z,62.10
2018-05-19T09:29:01.929Z,60.08
2018-05-19T09:30:02.190Z,59.64
2018-05-19T09:31:02.431Z,58.67
2018-05-19T09:32:02.677Z,58.67
2018-05-19T09:33:02.924Z,56.88
2018-05-19T09:34:03.172Z,57.43
2018-05-19T09:35:03.421Z,57.90
2018-05-19T09:36:03.668Z,59.19
2018-05-19T09:37:03.917Z,57.93
2018-05-19T09:38:04.168Z,57.20
2018-05-19T09:39:04.422Z,55.85
2018-05-19T09:40:04.661Z,55.08
2018-05-19T09:41:04.911Z,54.85
2018-05-19T09:42:05.161Z,54.56
2018-05-19T09:43:05.408Z,54.08
2018-05-19T09:44:05.655Z,52.70
2018-05-19T09:45:05.906Z,51.84
2018-05-19T09:46:06.153Z,54.99
2018-05-19T09:47:06.402Z,55.40
2018-05-19T09:48:06.649Z,54.82
2018-05-19T09:49:06.899Z,56.16
2018-05-19T09:50:07.147Z,56.74
2018-05-19T09:51:07.399Z,57.58
2018-05-19T09:52:07.649Z,57.20
2018-05-19T09:53:07.961Z,57.29
2018-05-19T09:54:08.142Z,55.85
2018-05-19T09:55:08.389Z,55.89
2018-05-19T09:56:08.636Z,59.16
2018-05-19T09:57:08.888Z,58.17
2018-05-19T09:58:09.134Z,60.05
2018-05-19T09:59:09.383Z,58.64
2018-05-19T10:00:09.632Z,60.05
2018-05-19T10:01:09.880Z,61.49
2018-05-19T10:02:10.130Z,61.30
2018-05-19T10:03:10.377Z,59.83
2018-05-19T10:04:10.630Z,60.08
2018-05-19T10:05:10.969Z,60.53
2018-05-19T10:06:11.124Z,60.08
2018-05-19T10:07:11.372Z,58.95
2018-05-19T10:08:11.609Z,57.80
2018-05-19T10:09:11.879Z,54.05
2018-05-19T10:10:12.128Z,53.86
2018-05-19T10:11:12.378Z,54.36
2018-05-19T10:12:12.625Z,54.36
2018-05-19T10:13:12.876Z,52.80
2018-05-19T10:14:13.125Z,54.50
2018-05-19T10:15:13.373Z,55.18
2018-05-19T10:16:13.624Z,55.12
2018-05-19T10:17:13.907Z,56.95
2018-05-19T10:18:14.120Z,59.16
2018-05-19T10:19:14.365Z,57.93
2018-05-19T10:20:14.617Z,56.11
2018-05-19T10:21:14.864Z,54.47
2018-05-19T10:22:15.114Z,53.54
2018-05-19T10:23:15.363Z,54.69
2018-05-19T10:24:15.640Z,56.59
2018-05-19T10:25:15.861Z,55.56
2018-05-19T10:26:16.111Z,54.77
2018-05-19T10:27:16.359Z,55.15
2018-05-19T10:28:16.650Z,55.08
2018-05-19T10:29:16.855Z,55.24
2018-05-19T10:30:17.107Z,54.69
2018-05-19T10:31:17.353Z,53.83
2018-05-19T10:32:17.609Z,52.06
2018-05-19T10:33:17.851Z,52.61
2018-05-19T10:34:18.099Z,54.14
2018-05-19T10:35:18.351Z,53.19
2018-05-19T10:36:18.600Z,50.35
2018-05-19T10:37:18.850Z,48.76
2018-05-19T10:38:19.101Z,46.28
2018-05-19T10:39:19.352Z,46.01
2018-05-19T10:40:19.603Z,44.60
2018-05-19T10:41:19.852Z,43.45
2018-05-19T10:42:20.101Z,44.63
2018-05-19T10:43:20.351Z,43.28
2018-05-19T10:44:20.605Z,43.45
2018-05-19T10:45:20.845Z,45.62
2018-05-19T10:46:21.095Z,48.86
2018-05-19T10:47:21.348Z,53.28
2018-05-19T10:48:21.600Z,54.50
2018-05-19T10:49:21.847Z,56.11
2018-05-19T10:50:22.101Z,55.44
2018-05-19T10:51:22.350Z,55.53
2018-05-19T10:52:22.600Z,55.08
2018-05-19T10:53:22.850Z,53.66
2018-05-19T10:54:23.103Z,52.68
2018-05-19T10:55:23.351Z,51.72
2018-05-19T10:56:23.601Z,53.64
2018-05-19T10:57:23.854Z,53.52
2018-05-19T10:58:24.106Z,54.83
2018-05-19T10:59:24.357Z,58.06
2018-05-19T11:00:24.607Z,54.72
2018-05-19T11:01:24.856Z,51.41
2018-05-19T11:02:25.108Z,49.43
2018-05-19T11:03:25.359Z,50.69
2018-05-19T11:04:25.613Z,49.79
2018-05-19T11:05:25.863Z,49.15
2018-05-19T11:06:26.113Z,48.76
2018-05-19T11:07:26.364Z,47.89
2018-05-19T11:08:26.616Z,47.12
2018-05-19T11:09:26.865Z,50.15
2018-05-19T11:10:27.120Z,51.86
2018-05-19T11:11:27.374Z,52.32
2018-05-19T11:12:27.622Z,52.12
2018-05-19T11:13:27.878Z,50.30
2018-05-19T11:14:28.124Z,49.94
2018-05-19T11:15:28.374Z,50.93
2018-05-19T11:16:28.625Z,53.98
2018-05-19T11:17:28.876Z,54.43
2018-05-19T11:18:29.127Z,53.83
2018-05-19T11:19:29.374Z,53.47
2018-05-19T11:20:29.626Z,55.46
2018-05-19T11:21:29.874Z,54.22
2018-05-19T11:22:30.128Z,52.77
2018-05-19T11:23:30.373Z,54.79
2018-05-19T11:24:30.625Z,55.01
2018-05-19T11:25:30.879Z,55.62
2018-05-19T11:26:31.128Z,55.13
2018-05-19T11:27:31.378Z,53.50
2018-05-19T11:28:31.626Z,51.86
2018-05-19T11:29:31.881Z,52.34
2018-05-19T11:30:32.125Z,53.47
2018-05-19T11:31:32.378Z,55.99
2018-05-19T11:32:32.628Z,58.64
2018-05-19T11:33:32.881Z,59.06
2018-05-19T11:34:33.130Z,60.47
2018-05-19T11:35:33.381Z,57.43
2018-05-19T11:36:33.630Z,56.98
2018-05-19T11:37:33.880Z,58.76
2018-05-19T11:38:34.131Z,55.43
2018-05-19T11:39:34.383Z,51.79
2018-05-19T11:40:34.640Z,54.20
2018-05-19T11:41:34.925Z,50.83
2018-05-19T11:42:35.142Z,49.99
2018-05-19T11:43:35.389Z,50.09
2018-05-19T11:44:35.643Z,49.51
2018-05-19T11:45:35.892Z,49.63
2018-05-19T11:46:36.146Z,49.07
2018-05-19T11:47:36.397Z,50.95
2018-05-19T11:48:36.648Z,53.31
2018-05-19T11:49:36.901Z,52.47
2018-05-19T11:50:37.205Z,49.99
2018-05-19T11:51:37.403Z,48.08
2018-05-19T11:52:37.654Z,50.10
2018-05-19T11:53:37.920Z,54.41
2018-05-19T11:54:38.172Z,55.76
2018-05-19T11:55:38.423Z,53.98
2018-05-19T11:56:38.677Z,52.25
2018-05-19T11:57:38.934Z,53.40
2018-05-19T11:58:39.185Z,54.03
2018-05-19T11:59:39.434Z,50.81
2018-05-19T12:00:39.684Z,51.03
2018-05-19T12:01:39.936Z,48.69
2018-05-19T12:02:40.225Z,47.55
2018-05-19T12:03:40.442Z,48.40
2018-05-19T12:04:40.693Z,48.06
2018-05-19T12:05:40.998Z,49.60
2018-05-19T12:06:41.196Z,52.70
2018-05-19T12:07:41.447Z,52.63
2018-05-19T12:08:41.700Z,51.60
2018-05-19T12:09:41.952Z,53.67
2018-05-19T12:10:42.203Z,52.64
2018-05-19T12:11:42.455Z,50.06
2018-05-19T12:12:42.708Z,47.58
2018-05-19T12:13:42.960Z,50.40
2018-05-19T12:14:43.210Z,48.25
2018-05-19T12:15:43.462Z,48.86
2018-05-19T12:16:43.715Z,50.16
2018-05-19T12:17:43.966Z,48.18
2018-05-19T12:18:44.216Z,45.14
2018-05-19T12:19:44.466Z,45.03
2018-05-19T12:20:44.716Z,48.76
2018-05-19T12:21:44.971Z,50.78
2018-05-19T12:22:45.280Z,50.06
2018-05-19T12:23:45.475Z,49.94
2018-05-19T12:24:45.724Z,51.87
2018-05-19T12:25:45.976Z,49.00
2018-05-19T12:26:46.230Z,48.61
2018-05-19T12:27:46.482Z,49.70
2018-05-19T12:28:46.734Z,46.23
2018-05-19T12:29:46.986Z,46.73
2018-05-19T12:30:47.236Z,46.61
2018-05-19T12:31:47.496Z,46.78
2018-05-19T12:32:47.740Z,46.27
2018-05-19T12:33:47.991Z,43.47
2018-05-19T12:34:48.243Z,43.26
2018-05-19T12:35:48.496Z,43.93
2018-05-19T12:36:48.750Z,44.51
2018-05-19T12:37:48.987Z,44.60
2018-05-19T12:38:49.254Z,45.11
2018-05-19T12:39:49.502Z,45.62
2018-05-19T12:40:49.755Z,44.46
2018-05-19T12:41:50.006Z,44.56
2018-05-19T12:42:50.267Z,42.99
2018-05-19T12:43:50.510Z,43.64
2018-05-19T12:44:50.761Z,43.14
2018-05-19T12:45:51.011Z,45.99
2018-05-19T12:46:51.264Z,47.07
2018-05-19T12:47:51.517Z,43.85
2018-05-19T12:48:51.824Z,41.77
2018-05-19T12:49:52.023Z,40.90
2018-05-19T12:50:52.274Z,42.16
2018-05-19T12:51:52.527Z,43.71
2018-05-19T12:52:52.779Z,44.57
2018-05-19T12:53:53.033Z,43.34
2018-05-19T12:54:53.283Z,40.44
2018-05-19T12:55:54.883Z,41.29